sensor_id;sensor_type;location;lat;lon;timestamp;P1;durP1;ratioP1;P2;durP2;ratioP2
79574;SDS011;69044;48.198;11.468;2023-05-07T00:01:56;6.03;;;3.88;;
79574;SDS011;69044;48.198;11.468;2023-05-07T00:04:23;9.10;;;4.68;;
79574;SDS011;69044;48.198;11.468;2023-05-07T00:06:51;6.53;;;3.83;;
79574;SDS011;69044;48.198;11.468;2023-05-07T00:09:18;11.85;;;5.20;;
79574;SDS011;69044;48.198;11.468;2023-05-07T00:11:45;7.50;;;4.50;;
79574;SDS011;69044;48.198;11.468;2023-05-07T00:14:13;8.18;;;4.40;;
79574;SDS011;69044;48.198;11.468;2023-05-07T00:16:40;9.40;;;4.63;;
79574;SDS011;69044;48.198;11.468;2023-05-07T00:19:09;9.40;;;4.68;;
79574;SDS011;69044;48.198;11.468;2023-05-07T00:21:36;8.20;;;4.32;;
79574;SDS011;69044;48.198;11.468;2023-05-07T00:24:04;8.00;;;4.18;;
79574;SDS011;69044;48.198;11.468;2023-05-07T00:26:31;6.97;;;3.85;;
79574;SDS011;69044;48.198;11.468;2023-05-07T00:28:59;8.48;;;4.50;;
79574;SDS011;69044;48.198;11.468;2023-05-07T00:31:26;6.60;;;4.05;;
79574;SDS011;69044;48.198;11.468;2023-05-07T00:33:53;7.22;;;4.53;;
79574;SDS011;69044;48.198;11.468;2023-05-07T00:36:22;7.00;;;4.40;;
79574;SDS011;69044;48.198;11.468;2023-05-07T00:38:49;8.88;;;4.50;;
79574;SDS011;69044;48.198;11.468;2023-05-07T00:41:17;7.80;;;4.70;;
79574;SDS011;69044;48.198;11.468;2023-05-07T00:43:44;7.03;;;4.13;;
79574;SDS011;69044;48.198;11.468;2023-05-07T00:46:11;9.40;;;4.60;;
79574;SDS011;69044;48.198;11.468;2023-05-07T00:51:07;6.50;;;3.75;;
79574;SDS011;69044;48.198;11.468;2023-05-07T00:53:36;7.35;;;3.80;;
79574;SDS011;69044;48.198;11.468;2023-05-07T00:56:04;6.88;;;4.20;;
79574;SDS011;69044;48.198;11.468;2023-05-07T01:00:59;9.27;;;3.83;;
79574;SDS011;69044;48.198;11.468;2023-05-07T01:03:26;8.20;;;4.38;;
79574;SDS011;69044;48.198;11.468;2023-05-07T01:05:54;9.93;;;3.88;;
79574;SDS011;69044;48.198;11.468;2023-05-07T01:08:22;7.03;;;4.10;;
79574;SDS011;69044;48.198;11.468;2023-05-07T01:10:51;7.53;;;4.50;;
79574;SDS011;69044;48.198;11.468;2023-05-07T01:13:19;6.95;;;3.53;;
79574;SDS011;69044;48.198;11.468;2023-05-07T01:15:47;7.95;;;4.47;;
79574;SDS011;69044;48.198;11.468;2023-05-07T01:18:15;9.65;;;4.30;;
79574;SDS011;69044;48.198;11.468;2023-05-07T01:20:42;8.10;;;3.92;;
79574;SDS011;69044;48.198;11.468;2023-05-07T01:23:11;6.60;;;3.70;;
79574;SDS011;69044;48.198;11.468;2023-05-07T01:25:39;7.38;;;3.95;;
79574;SDS011;69044;48.198;11.468;2023-05-07T01:28:07;10.80;;;4.60;;
79574;SDS011;69044;48.198;11.468;2023-05-07T01:30:45;8.20;;;4.13;;
79574;SDS011;69044;48.198;11.468;2023-05-07T01:33:17;5.32;;;3.63;;
79574;SDS011;69044;48.198;11.468;2023-05-07T01:35:47;5.65;;;3.45;;
79574;SDS011;69044;48.198;11.468;2023-05-07T01:38:17;8.23;;;4.38;;
79574;SDS011;69044;48.198;11.468;2023-05-07T01:40:44;6.40;;;4.05;;
79574;SDS011;69044;48.198;11.468;2023-05-07T01:43:12;7.93;;;4.25;;
79574;SDS011;69044;48.198;11.468;2023-05-07T01:45:40;5.88;;;3.65;;
79574;SDS011;69044;48.198;11.468;2023-05-07T01:48:09;6.32;;;3.42;;
79574;SDS011;69044;48.198;11.468;2023-05-07T01:53:03;7.18;;;3.88;;
79574;SDS011;69044;48.198;11.468;2023-05-07T01:55:32;6.10;;;3.58;;
79574;SDS011;69044;48.198;11.468;2023-05-07T01:58:00;8.98;;;4.05;;
79574;SDS011;69044;48.198;11.468;2023-05-07T02:00:27;5.07;;;3.28;;
79574;SDS011;69044;48.198;11.468;2023-05-07T02:02:55;6.10;;;3.47;;
79574;SDS011;69044;48.198;11.468;2023-05-07T02:05:34;5.97;;;3.55;;
79574;SDS011;69044;48.198;11.468;2023-05-07T02:08:21;8.38;;;4.07;;
79574;SDS011;69044;48.198;11.468;2023-05-07T02:10:50;7.35;;;4.00;;
79574;SDS011;69044;48.198;11.468;2023-05-07T02:13:19;7.18;;;4.25;;
79574;SDS011;69044;48.198;11.468;2023-05-07T02:15:48;4.88;;;3.03;;
79574;SDS011;69044;48.198;11.468;2023-05-07T02:18:17;7.13;;;3.90;;
79574;SDS011;69044;48.198;11.468;2023-05-07T02:20:44;9.38;;;4.30;;
79574;SDS011;69044;48.198;11.468;2023-05-07T02:23:11;6.97;;;4.00;;
79574;SDS011;69044;48.198;11.468;2023-05-07T02:25:38;9.25;;;4.30;;
79574;SDS011;69044;48.198;11.468;2023-05-07T02:28:07;4.82;;;3.35;;
79574;SDS011;69044;48.198;11.468;2023-05-07T02:30:48;8.05;;;4.10;;
79574;SDS011;69044;48.198;11.468;2023-05-07T02:33:16;6.10;;;3.70;;
79574;SDS011;69044;48.198;11.468;2023-05-07T02:35:44;6.95;;;3.40;;
79574;SDS011;69044;48.198;11.468;2023-05-07T02:38:13;6.10;;;3.60;;
79574;SDS011;69044;48.198;11.468;2023-05-07T02:40:41;8.60;;;4.05;;
79574;SDS011;69044;48.198;11.468;2023-05-07T02:43:10;6.93;;;3.97;;
79574;SDS011;69044;48.198;11.468;2023-05-07T02:45:40;7.80;;;4.00;;
79574;SDS011;69044;48.198;11.468;2023-05-07T02:48:09;6.40;;;3.70;;
79574;SDS011;69044;48.198;11.468;2023-05-07T02:50:36;5.45;;;3.40;;
79574;SDS011;69044;48.198;11.468;2023-05-07T02:53:03;7.05;;;3.97;;
79574;SDS011;69044;48.198;11.468;2023-05-07T02:55:31;6.60;;;3.72;;
79574;SDS011;69044;48.198;11.468;2023-05-07T02:57:58;6.00;;;3.88;;
79574;SDS011;69044;48.198;11.468;2023-05-07T03:00:27;5.43;;;3.65;;
79574;SDS011;69044;48.198;11.468;2023-05-07T03:03:33;8.43;;;4.45;;
79574;SDS011;69044;48.198;11.468;2023-05-07T03:06:00;7.32;;;3.80;;
79574;SDS011;69044;48.198;11.468;2023-05-07T03:08:28;5.65;;;3.88;;
79574;SDS011;69044;48.198;11.468;2023-05-07T03:10:55;8.57;;;3.60;;
79574;SDS011;69044;48.198;11.468;2023-05-07T03:13:22;6.32;;;4.10;;
79574;SDS011;69044;48.198;11.468;2023-05-07T03:15:51;7.72;;;3.92;;
79574;SDS011;69044;48.198;11.468;2023-05-07T03:18:19;6.65;;;3.75;;
79574;SDS011;69044;48.198;11.468;2023-05-07T03:20:47;7.88;;;3.90;;
79574;SDS011;69044;48.198;11.468;2023-05-07T03:23:16;6.70;;;3.92;;
79574;SDS011;69044;48.198;11.468;2023-05-07T03:25:44;5.80;;;3.88;;
79574;SDS011;69044;48.198;11.468;2023-05-07T03:28:11;4.82;;;3.30;;
79574;SDS011;69044;48.198;11.468;2023-05-07T03:31:06;8.20;;;4.07;;
79574;SDS011;69044;48.198;11.468;2023-05-07T03:33:33;7.55;;;4.18;;
79574;SDS011;69044;48.198;11.468;2023-05-07T03:36:01;6.50;;;3.83;;
79574;SDS011;69044;48.198;11.468;2023-05-07T03:38:28;7.07;;;3.42;;
79574;SDS011;69044;48.198;11.468;2023-05-07T03:40:56;7.43;;;4.13;;
79574;SDS011;69044;48.198;11.468;2023-05-07T03:43:23;8.80;;;4.07;;
79574;SDS011;69044;48.198;11.468;2023-05-07T03:45:58;6.38;;;3.42;;
79574;SDS011;69044;48.198;11.468;2023-05-07T03:48:29;8.10;;;4.28;;
79574;SDS011;69044;48.198;11.468;2023-05-07T03:50:58;6.13;;;3.70;;
79574;SDS011;69044;48.198;11.468;2023-05-07T03:53:30;5.32;;;3.42;;
79574;SDS011;69044;48.198;11.468;2023-05-07T03:55:57;8.23;;;3.60;;
79574;SDS011;69044;48.198;11.468;2023-05-07T03:58:25;4.35;;;2.97;;
79574;SDS011;69044;48.198;11.468;2023-05-07T04:00:55;6.85;;;3.67;;
79574;SDS011;69044;48.198;11.468;2023-05-07T04:03:26;6.57;;;3.47;;
79574;SDS011;69044;48.198;11.468;2023-05-07T04:05:58;4.93;;;3.22;;
79574;SDS011;69044;48.198;11.468;2023-05-07T04:08:26;4.80;;;3.30;;
79574;SDS011;69044;48.198;11.468;2023-05-07T04:10:54;6.88;;;3.92;;
79574;SDS011;69044;48.198;11.468;2023-05-07T04:13:23;5.80;;;4.10;;
79574;SDS011;69044;48.198;11.468;2023-05-07T04:15:51;5.63;;;3.45;;
79574;SDS011;69044;48.198;11.468;2023-05-07T04:18:19;6.68;;;3.78;;
79574;SDS011;69044;48.198;11.468;2023-05-07T04:23:16;5.82;;;3.25;;
79574;SDS011;69044;48.198;11.468;2023-05-07T04:25:44;6.43;;;3.75;;
79574;SDS011;69044;48.198;11.468;2023-05-07T04:28:30;7.60;;;4.15;;
79574;SDS011;69044;48.198;11.468;2023-05-07T04:30:58;4.97;;;3.35;;
79574;SDS011;69044;48.198;11.468;2023-05-07T04:33:25;6.07;;;4.03;;
79574;SDS011;69044;48.198;11.468;2023-05-07T04:35:57;6.45;;;3.58;;
79574;SDS011;69044;48.198;11.468;2023-05-07T04:38:29;5.35;;;3.28;;
79574;SDS011;69044;48.198;11.468;2023-05-07T04:41:02;6.15;;;3.80;;
79574;SDS011;69044;48.198;11.468;2023-05-07T04:43:30;6.95;;;3.80;;
79574;SDS011;69044;48.198;11.468;2023-05-07T04:45:59;6.45;;;3.47;;
79574;SDS011;69044;48.198;11.468;2023-05-07T04:48:27;6.15;;;3.63;;
79574;SDS011;69044;48.198;11.468;2023-05-07T04:50:57;7.05;;;4.30;;
79574;SDS011;69044;48.198;11.468;2023-05-07T04:53:24;7.95;;;3.67;;
79574;SDS011;69044;48.198;11.468;2023-05-07T04:56:16;6.05;;;3.53;;
79574;SDS011;69044;48.198;11.468;2023-05-07T04:58:46;7.93;;;4.22;;
79574;SDS011;69044;48.198;11.468;2023-05-07T05:01:15;7.55;;;4.32;;
79574;SDS011;69044;48.198;11.468;2023-05-07T05:03:43;6.82;;;3.97;;
79574;SDS011;69044;48.198;11.468;2023-05-07T05:06:12;7.53;;;4.07;;
79574;SDS011;69044;48.198;11.468;2023-05-07T05:11:06;7.75;;;3.60;;
79574;SDS011;69044;48.198;11.468;2023-05-07T05:13:35;6.10;;;3.53;;
79574;SDS011;69044;48.198;11.468;2023-05-07T05:16:10;7.93;;;4.45;;
79574;SDS011;69044;48.198;11.468;2023-05-07T05:18:38;7.28;;;3.63;;
79574;SDS011;69044;48.198;11.468;2023-05-07T05:21:05;6.97;;;3.80;;
79574;SDS011;69044;48.198;11.468;2023-05-07T05:23:34;7.68;;;4.20;;
79574;SDS011;69044;48.198;11.468;2023-05-07T05:26:02;6.13;;;3.60;;
79574;SDS011;69044;48.198;11.468;2023-05-07T05:28:32;9.10;;;4.60;;
79574;SDS011;69044;48.198;11.468;2023-05-07T05:30:59;6.90;;;4.00;;
79574;SDS011;69044;48.198;11.468;2023-05-07T05:33:30;6.47;;;4.38;;
79574;SDS011;69044;48.198;11.468;2023-05-07T05:36:02;7.57;;;4.25;;
79574;SDS011;69044;48.198;11.468;2023-05-07T05:38:30;7.90;;;4.13;;
79574;SDS011;69044;48.198;11.468;2023-05-07T05:40:59;7.10;;;3.67;;
79574;SDS011;69044;48.198;11.468;2023-05-07T05:43:29;7.18;;;3.83;;
79574;SDS011;69044;48.198;11.468;2023-05-07T05:45:56;7.93;;;4.72;;
79574;SDS011;69044;48.198;11.468;2023-05-07T05:48:25;7.10;;;4.35;;
79574;SDS011;69044;48.198;11.468;2023-05-07T05:50:52;8.43;;;5.28;;
79574;SDS011;69044;48.198;11.468;2023-05-07T05:53:20;7.88;;;5.10;;
79574;SDS011;69044;48.198;11.468;2023-05-07T05:55:47;7.22;;;4.28;;
79574;SDS011;69044;48.198;11.468;2023-05-07T05:58:16;7.85;;;4.00;;
79574;SDS011;69044;48.198;11.468;2023-05-07T06:00:50;8.00;;;4.07;;
79574;SDS011;69044;48.198;11.468;2023-05-07T06:03:21;7.28;;;4.13;;
79574;SDS011;69044;48.198;11.468;2023-05-07T06:05:49;8.23;;;4.63;;
79574;SDS011;69044;48.198;11.468;2023-05-07T06:08:17;7.55;;;4.22;;
79574;SDS011;69044;48.198;11.468;2023-05-07T06:10:45;5.38;;;3.60;;
79574;SDS011;69044;48.198;11.468;2023-05-07T06:13:13;6.20;;;3.70;;
79574;SDS011;69044;48.198;11.468;2023-05-07T06:15:42;8.15;;;4.50;;
79574;SDS011;69044;48.198;11.468;2023-05-07T06:18:12;8.43;;;5.30;;
79574;SDS011;69044;48.198;11.468;2023-05-07T06:20:40;8.50;;;4.82;;
79574;SDS011;69044;48.198;11.468;2023-05-07T06:23:13;7.88;;;4.47;;
79574;SDS011;69044;48.198;11.468;2023-05-07T06:25:41;7.47;;;4.55;;
79574;SDS011;69044;48.198;11.468;2023-05-07T06:28:08;9.27;;;4.55;;
79574;SDS011;69044;48.198;11.468;2023-05-07T06:30:40;6.43;;;3.65;;
79574;SDS011;69044;48.198;11.468;2023-05-07T06:33:08;8.13;;;4.65;;
79574;SDS011;69044;48.198;11.468;2023-05-07T06:35:36;8.10;;;4.47;;
79574;SDS011;69044;48.198;11.468;2023-05-07T06:38:03;9.52;;;4.90;;
79574;SDS011;69044;48.198;11.468;2023-05-07T06:40:31;8.52;;;4.90;;
79574;SDS011;69044;48.198;11.468;2023-05-07T06:42:59;7.97;;;4.80;;
79574;SDS011;69044;48.198;11.468;2023-05-07T06:45:35;8.48;;;4.60;;
79574;SDS011;69044;48.198;11.468;2023-05-07T06:48:04;6.72;;;4.40;;
79574;SDS011;69044;48.198;11.468;2023-05-07T06:50:41;9.80;;;5.10;;
79574;SDS011;69044;48.198;11.468;2023-05-07T06:53:08;7.30;;;4.15;;
79574;SDS011;69044;48.198;11.468;2023-05-07T06:55:36;7.32;;;4.28;;
79574;SDS011;69044;48.198;11.468;2023-05-07T07:00:32;6.60;;;3.05;;
79574;SDS011;69044;48.198;11.468;2023-05-07T07:02:59;6.68;;;3.88;;
79574;SDS011;69044;48.198;11.468;2023-05-07T07:05:27;6.18;;;3.40;;
79574;SDS011;69044;48.198;11.468;2023-05-07T07:10:25;9.90;;;3.80;;
79574;SDS011;69044;48.198;11.468;2023-05-07T07:12:54;5.63;;;3.38;;
79574;SDS011;69044;48.198;11.468;2023-05-07T07:15:22;5.68;;;3.45;;
79574;SDS011;69044;48.198;11.468;2023-05-07T07:17:51;4.78;;;3.08;;
79574;SDS011;69044;48.198;11.468;2023-05-07T07:20:18;6.80;;;2.78;;
79574;SDS011;69044;48.198;11.468;2023-05-07T07:22:46;4.97;;;2.97;;
79574;SDS011;69044;48.198;11.468;2023-05-07T07:25:17;6.07;;;3.22;;
79574;SDS011;69044;48.198;11.468;2023-05-07T07:27:44;4.40;;;2.70;;
79574;SDS011;69044;48.198;11.468;2023-05-07T07:30:13;5.93;;;3.47;;
79574;SDS011;69044;48.198;11.468;2023-05-07T07:32:45;5.68;;;3.47;;
79574;SDS011;69044;48.198;11.468;2023-05-07T07:35:12;6.18;;;3.45;;
79574;SDS011;69044;48.198;11.468;2023-05-07T07:37:39;5.65;;;2.88;;
79574;SDS011;69044;48.198;11.468;2023-05-07T07:40:07;4.32;;;3.03;;
79574;SDS011;69044;48.198;11.468;2023-05-07T07:42:38;4.90;;;2.80;;
79574;SDS011;69044;48.198;11.468;2023-05-07T07:45:07;5.05;;;3.30;;
79574;SDS011;69044;48.198;11.468;2023-05-07T07:47:39;5.30;;;2.90;;
79574;SDS011;69044;48.198;11.468;2023-05-07T07:50:07;4.80;;;3.00;;
79574;SDS011;69044;48.198;11.468;2023-05-07T07:52:34;5.32;;;2.60;;
79574;SDS011;69044;48.198;11.468;2023-05-07T07:55:02;5.03;;;2.95;;
79574;SDS011;69044;48.198;11.468;2023-05-07T07:57:30;9.35;;;4.80;;
79574;SDS011;69044;48.198;11.468;2023-05-07T07:59:59;29.88;;;12.00;;
79574;SDS011;69044;48.198;11.468;2023-05-07T08:02:26;8.27;;;3.88;;
79574;SDS011;69044;48.198;11.468;2023-05-07T08:04:54;5.72;;;3.33;;
79574;SDS011;69044;48.198;11.468;2023-05-07T08:07:21;7.63;;;2.78;;
79574;SDS011;69044;48.198;11.468;2023-05-07T08:09:49;3.83;;;2.50;;
79574;SDS011;69044;48.198;11.468;2023-05-07T08:12:20;4.65;;;2.78;;
79574;SDS011;69044;48.198;11.468;2023-05-07T08:14:48;5.80;;;2.90;;
79574;SDS011;69044;48.198;11.468;2023-05-07T08:17:17;3.70;;;2.50;;
79574;SDS011;69044;48.198;11.468;2023-05-07T08:19:45;3.63;;;2.50;;
79574;SDS011;69044;48.198;11.468;2023-05-07T08:22:14;5.38;;;2.88;;
79574;SDS011;69044;48.198;11.468;2023-05-07T08:24:43;4.32;;;2.70;;
79574;SDS011;69044;48.198;11.468;2023-05-07T08:27:11;4.50;;;2.80;;
79574;SDS011;69044;48.198;11.468;2023-05-07T08:29:41;4.85;;;2.60;;
79574;SDS011;69044;48.198;11.468;2023-05-07T08:32:08;4.43;;;2.83;;
79574;SDS011;69044;48.198;11.468;2023-05-07T08:34:37;5.00;;;2.83;;
79574;SDS011;69044;48.198;11.468;2023-05-07T08:37:06;4.80;;;2.50;;
79574;SDS011;69044;48.198;11.468;2023-05-07T08:39:34;3.63;;;2.40;;
79574;SDS011;69044;48.198;11.468;2023-05-07T08:42:03;3.58;;;2.40;;
79574;SDS011;69044;48.198;11.468;2023-05-07T08:44:33;5.22;;;2.85;;
79574;SDS011;69044;48.198;11.468;2023-05-07T08:49:30;3.75;;;2.65;;
79574;SDS011;69044;48.198;11.468;2023-05-07T08:51:59;4.50;;;2.50;;
79574;SDS011;69044;48.198;11.468;2023-05-07T08:54:27;5.38;;;3.03;;
79574;SDS011;69044;48.198;11.468;2023-05-07T08:56:56;9.57;;;4.93;;
79574;SDS011;69044;48.198;11.468;2023-05-07T08:59:23;5.90;;;2.92;;
79574;SDS011;69044;48.198;11.468;2023-05-07T09:01:50;5.80;;;2.78;;
79574;SDS011;69044;48.198;11.468;2023-05-07T09:04:18;3.83;;;2.50;;
79574;SDS011;69044;48.198;11.468;2023-05-07T09:06:46;4.05;;;2.55;;
79574;SDS011;69044;48.198;11.468;2023-05-07T09:11:43;3.83;;;2.55;;
79574;SDS011;69044;48.198;11.468;2023-05-07T09:14:12;3.78;;;2.53;;
79574;SDS011;69044;48.198;11.468;2023-05-07T09:16:42;4.20;;;2.70;;
79574;SDS011;69044;48.198;11.468;2023-05-07T09:19:10;3.47;;;2.17;;
79574;SDS011;69044;48.198;11.468;2023-05-07T09:21:42;4.10;;;2.47;;
79574;SDS011;69044;48.198;11.468;2023-05-07T09:24:11;4.85;;;2.65;;
79574;SDS011;69044;48.198;11.468;2023-05-07T09:26:42;12.85;;;5.85;;
79574;SDS011;69044;48.198;11.468;2023-05-07T09:29:10;5.95;;;3.17;;
79574;SDS011;69044;48.198;11.468;2023-05-07T09:31:38;3.95;;;2.70;;
79574;SDS011;69044;48.198;11.468;2023-05-07T09:34:08;3.47;;;2.50;;
79574;SDS011;69044;48.198;11.468;2023-05-07T09:36:38;3.75;;;2.15;;
79574;SDS011;69044;48.198;11.468;2023-05-07T09:39:05;3.30;;;2.35;;
79574;SDS011;69044;48.198;11.468;2023-05-07T09:41:32;4.05;;;2.40;;
79574;SDS011;69044;48.198;11.468;2023-05-07T09:44:10;6.95;;;4.22;;
79574;SDS011;69044;48.198;11.468;2023-05-07T09:46:43;18.27;;;9.10;;
79574;SDS011;69044;48.198;11.468;2023-05-07T09:49:20;6.65;;;2.42;;
79574;SDS011;69044;48.198;11.468;2023-05-07T09:51:56;3.45;;;2.20;;
79574;SDS011;69044;48.198;11.468;2023-05-07T09:54:25;3.22;;;2.30;;
79574;SDS011;69044;48.198;11.468;2023-05-07T09:56:56;3.13;;;2.05;;
79574;SDS011;69044;48.198;11.468;2023-05-07T09:59:27;2.85;;;2.00;;
79574;SDS011;69044;48.198;11.468;2023-05-07T10:01:56;3.40;;;2.00;;
79574;SDS011;69044;48.198;11.468;2023-05-07T10:04:25;3.10;;;2.03;;
79574;SDS011;69044;48.198;11.468;2023-05-07T10:06:53;3.03;;;2.03;;
79574;SDS011;69044;48.198;11.468;2023-05-07T10:09:23;3.38;;;2.05;;
79574;SDS011;69044;48.198;11.468;2023-05-07T10:11:51;2.60;;;1.60;;
79574;SDS011;69044;48.198;11.468;2023-05-07T10:14:21;2.40;;;1.63;;
79574;SDS011;69044;48.198;11.468;2023-05-07T10:16:50;2.88;;;2.00;;
79574;SDS011;69044;48.198;11.468;2023-05-07T10:19:18;3.10;;;2.00;;
79574;SDS011;69044;48.198;11.468;2023-05-07T10:21:51;5.80;;;2.03;;
79574;SDS011;69044;48.198;11.468;2023-05-07T10:24:25;3.58;;;2.35;;
79574;SDS011;69044;48.198;11.468;2023-05-07T10:26:53;2.92;;;1.92;;
79574;SDS011;69044;48.198;11.468;2023-05-07T10:29:25;3.72;;;1.80;;
79574;SDS011;69044;48.198;11.468;2023-05-07T10:32:03;2.58;;;1.88;;
79574;SDS011;69044;48.198;11.468;2023-05-07T10:34:39;3.83;;;1.98;;
79574;SDS011;69044;48.198;11.468;2023-05-07T10:37:08;2.72;;;1.80;;
79574;SDS011;69044;48.198;11.468;2023-05-07T10:39:36;2.80;;;1.75;;
79574;SDS011;69044;48.198;11.468;2023-05-07T10:42:07;2.60;;;2.00;;
79574;SDS011;69044;48.198;11.468;2023-05-07T10:44:36;3.72;;;1.70;;
79574;SDS011;69044;48.198;11.468;2023-05-07T10:47:09;2.92;;;1.88;;
79574;SDS011;69044;48.198;11.468;2023-05-07T10:52:44;2.45;;;1.63;;
79574;SDS011;69044;48.198;11.468;2023-05-07T10:55:19;2.70;;;1.73;;
79574;SDS011;69044;48.198;11.468;2023-05-07T10:58:23;2.83;;;1.88;;
79574;SDS011;69044;48.198;11.468;2023-05-07T11:00:58;3.90;;;1.88;;
79574;SDS011;69044;48.198;11.468;2023-05-07T11:06:08;3.08;;;1.75;;
79574;SDS011;69044;48.198;11.468;2023-05-07T11:08:54;3.25;;;1.50;;
79574;SDS011;69044;48.198;11.468;2023-05-07T11:11:44;3.78;;;1.83;;
79574;SDS011;69044;48.198;11.468;2023-05-07T11:14:15;3.88;;;1.92;;
79574;SDS011;69044;48.198;11.468;2023-05-07T11:17:27;2.90;;;1.60;;
79574;SDS011;69044;48.198;11.468;2023-05-07T11:20:03;3.10;;;1.92;;
79574;SDS011;69044;48.198;11.468;2023-05-07T11:22:51;4.68;;;2.13;;
79574;SDS011;69044;48.198;11.468;2023-05-07T11:25:31;3.45;;;2.00;;
79574;SDS011;69044;48.198;11.468;2023-05-07T11:28:06;4.00;;;1.92;;
79574;SDS011;69044;48.198;11.468;2023-05-07T11:30:42;2.90;;;1.80;;
79574;SDS011;69044;48.198;11.468;2023-05-07T11:33:12;4.47;;;2.00;;
79574;SDS011;69044;48.198;11.468;2023-05-07T11:35:44;4.25;;;2.30;;
79574;SDS011;69044;48.198;11.468;2023-05-07T11:38:14;3.40;;;2.05;;
79574;SDS011;69044;48.198;11.468;2023-05-07T11:40:48;3.28;;;1.65;;
79574;SDS011;69044;48.198;11.468;2023-05-07T11:43:16;2.70;;;1.90;;
79574;SDS011;69044;48.198;11.468;2023-05-07T11:45:45;4.15;;;1.70;;
79574;SDS011;69044;48.198;11.468;2023-05-07T11:48:13;3.92;;;1.85;;
79574;SDS011;69044;48.198;11.468;2023-05-07T11:50:49;3.35;;;1.70;;
79574;SDS011;69044;48.198;11.468;2023-05-07T11:53:18;2.95;;;1.88;;
79574;SDS011;69044;48.198;11.468;2023-05-07T11:55:45;2.90;;;1.98;;
79574;SDS011;69044;48.198;11.468;2023-05-07T11:58:15;2.70;;;1.65;;
79574;SDS011;69044;48.198;11.468;2023-05-07T12:00:51;3.08;;;1.88;;
79574;SDS011;69044;48.198;11.468;2023-05-07T12:03:19;3.55;;;1.70;;
79574;SDS011;69044;48.198;11.468;2023-05-07T12:05:47;3.08;;;1.73;;
79574;SDS011;69044;48.198;11.468;2023-05-07T12:08:15;2.88;;;1.88;;
79574;SDS011;69044;48.198;11.468;2023-05-07T12:10:42;2.63;;;1.70;;
79574;SDS011;69044;48.198;11.468;2023-05-07T12:13:15;3.30;;;1.88;;
79574;SDS011;69044;48.198;11.468;2023-05-07T12:15:43;2.53;;;1.70;;
79574;SDS011;69044;48.198;11.468;2023-05-07T12:18:12;3.28;;;1.70;;
79574;SDS011;69044;48.198;11.468;2023-05-07T12:20:39;2.53;;;1.67;;
79574;SDS011;69044;48.198;11.468;2023-05-07T12:23:07;2.58;;;1.70;;
79574;SDS011;69044;48.198;11.468;2023-05-07T12:25:34;2.30;;;1.58;;
79574;SDS011;69044;48.198;11.468;2023-05-07T12:28:02;2.00;;;1.50;;
79574;SDS011;69044;48.198;11.468;2023-05-07T12:30:30;4.65;;;1.63;;
79574;SDS011;69044;48.198;11.468;2023-05-07T12:32:58;2.28;;;1.55;;
79574;SDS011;69044;48.198;11.468;2023-05-07T12:35:29;2.28;;;1.77;;
79574;SDS011;69044;48.198;11.468;2023-05-07T12:37:59;2.70;;;1.60;;
79574;SDS011;69044;48.198;11.468;2023-05-07T12:40:35;2.08;;;1.50;;
79574;SDS011;69044;48.198;11.468;2023-05-07T12:43:02;2.72;;;1.65;;
79574;SDS011;69044;48.198;11.468;2023-05-07T12:45:30;2.47;;;1.63;;
79574;SDS011;69044;48.198;11.468;2023-05-07T12:48:01;4.20;;;2.50;;
79574;SDS011;69044;48.198;11.468;2023-05-07T12:50:34;2.40;;;1.65;;
79574;SDS011;69044;48.198;11.468;2023-05-07T12:53:02;2.50;;;1.60;;
79574;SDS011;69044;48.198;11.468;2023-05-07T12:55:31;3.40;;;1.67;;
79574;SDS011;69044;48.198;11.468;2023-05-07T12:58:00;2.70;;;1.70;;
79574;SDS011;69044;48.198;11.468;2023-05-07T13:00:34;2.28;;;1.60;;
79574;SDS011;69044;48.198;11.468;2023-05-07T13:03:02;2.20;;;1.42;;
79574;SDS011;69044;48.198;11.468;2023-05-07T13:05:30;3.40;;;1.50;;
79574;SDS011;69044;48.198;11.468;2023-05-07T13:07:59;2.20;;;1.52;;
79574;SDS011;69044;48.198;11.468;2023-05-07T13:10:26;2.50;;;1.52;;
79574;SDS011;69044;48.198;11.468;2023-05-07T13:12:54;2.33;;;1.50;;
79574;SDS011;69044;48.198;11.468;2023-05-07T13:15:21;3.42;;;1.60;;
79574;SDS011;69044;48.198;11.468;2023-05-07T13:17:49;3.00;;;1.77;;
79574;SDS011;69044;48.198;11.468;2023-05-07T13:20:16;2.25;;;1.60;;
79574;SDS011;69044;48.198;11.468;2023-05-07T13:22:43;3.40;;;2.00;;
79574;SDS011;69044;48.198;11.468;2023-05-07T13:25:13;2.63;;;1.70;;
79574;SDS011;69044;48.198;11.468;2023-05-07T13:27:40;2.55;;;1.90;;
79574;SDS011;69044;48.198;11.468;2023-05-07T13:30:07;2.97;;;1.60;;
79574;SDS011;69044;48.198;11.468;2023-05-07T13:32:34;2.97;;;1.98;;
79574;SDS011;69044;48.198;11.468;2023-05-07T13:35:02;3.63;;;2.00;;
79574;SDS011;69044;48.198;11.468;2023-05-07T13:37:29;2.97;;;1.95;;
79574;SDS011;69044;48.198;11.468;2023-05-07T13:39:56;2.88;;;1.80;;
79574;SDS011;69044;48.198;11.468;2023-05-07T13:42:25;2.88;;;1.80;;
79574;SDS011;69044;48.198;11.468;2023-05-07T13:44:52;2.78;;;2.00;;
79574;SDS011;69044;48.198;11.468;2023-05-07T13:47:19;2.92;;;2.03;;
79574;SDS011;69044;48.198;11.468;2023-05-07T13:49:47;2.97;;;2.00;;
79574;SDS011;69044;48.198;11.468;2023-05-07T13:52:15;2.88;;;2.00;;
79574;SDS011;69044;48.198;11.468;2023-05-07T13:54:42;2.95;;;2.10;;
79574;SDS011;69044;48.198;11.468;2023-05-07T13:57:10;2.95;;;1.92;;
79574;SDS011;69044;48.198;11.468;2023-05-07T13:59:39;3.30;;;2.00;;
79574;SDS011;69044;48.198;11.468;2023-05-07T14:02:07;2.83;;;2.00;;
79574;SDS011;69044;48.198;11.468;2023-05-07T14:04:34;3.67;;;2.20;;
79574;SDS011;69044;48.198;11.468;2023-05-07T14:07:02;4.10;;;2.08;;
79574;SDS011;69044;48.198;11.468;2023-05-07T14:09:29;2.97;;;1.88;;
79574;SDS011;69044;48.198;11.468;2023-05-07T14:11:56;3.90;;;2.20;;
79574;SDS011;69044;48.198;11.468;2023-05-07T14:14:23;4.55;;;2.38;;
79574;SDS011;69044;48.198;11.468;2023-05-07T14:16:52;4.07;;;2.30;;
79574;SDS011;69044;48.198;11.468;2023-05-07T14:19:19;2.83;;;2.03;;
79574;SDS011;69044;48.198;11.468;2023-05-07T14:21:48;5.05;;;2.20;;
79574;SDS011;69044;48.198;11.468;2023-05-07T14:24:15;3.25;;;2.00;;
79574;SDS011;69044;48.198;11.468;2023-05-07T14:26:44;3.17;;;1.92;;
79574;SDS011;69044;48.198;11.468;2023-05-07T14:29:11;2.92;;;1.95;;
79574;SDS011;69044;48.198;11.468;2023-05-07T14:31:41;3.00;;;2.30;;
79574;SDS011;69044;48.198;11.468;2023-05-07T14:34:09;3.05;;;2.25;;
79574;SDS011;69044;48.198;11.468;2023-05-07T14:36:38;3.97;;;1.92;;
79574;SDS011;69044;48.198;11.468;2023-05-07T14:39:05;3.35;;;2.35;;
79574;SDS011;69044;48.198;11.468;2023-05-07T14:41:32;3.40;;;2.30;;
79574;SDS011;69044;48.198;11.468;2023-05-07T14:44:00;3.08;;;1.92;;
79574;SDS011;69044;48.198;11.468;2023-05-07T14:46:29;3.15;;;2.30;;
79574;SDS011;69044;48.198;11.468;2023-05-07T14:48:57;2.65;;;2.00;;
79574;SDS011;69044;48.198;11.468;2023-05-07T14:51:25;3.65;;;2.30;;
79574;SDS011;69044;48.198;11.468;2023-05-07T14:53:54;2.45;;;1.80;;
79574;SDS011;69044;48.198;11.468;2023-05-07T14:56:21;3.03;;;2.03;;
79574;SDS011;69044;48.198;11.468;2023-05-07T14:58:48;2.65;;;1.92;;
79574;SDS011;69044;48.198;11.468;2023-05-07T15:01:16;3.25;;;1.92;;
79574;SDS011;69044;48.198;11.468;2023-05-07T15:03:43;2.53;;;1.92;;
79574;SDS011;69044;48.198;11.468;2023-05-07T15:06:10;2.95;;;1.80;;
79574;SDS011;69044;48.198;11.468;2023-05-07T15:08:39;2.85;;;1.80;;
79574;SDS011;69044;48.198;11.468;2023-05-07T15:11:06;2.88;;;2.00;;
79574;SDS011;69044;48.198;11.468;2023-05-07T15:13:33;2.70;;;1.80;;
79574;SDS011;69044;48.198;11.468;2023-05-07T15:16:00;4.38;;;1.77;;